Time;durP1;ratioP1;P1;durP2;ratioP2;P2;SDS_P1;SDS_P2;PMS_P1;PMS_P2;Temp;Humidity;BMP_temperature;BMP_pressure;BME280_temperature;BME280_humidity;BME280_pressure;Samples;Min_cycle;Max_cycle;Signal;HPM_P1;HPM_P2
2022/08/20 00:01:46;;;;;;;;;28.00;26.60;;;;;;;;5191108;28;8787;-74
2022/08/20 00:04:36;;;;;;;;;29.20;27.80;;;;;;;;5223867;28;8852;-73
2022/08/20 00:07:07;;;;;;;;;35.40;32.80;;;;;;;;5207370;28;8809;-74
2022/08/20 00:09:40;;;;;;;;;36.80;33.00;;;;;;;;5225274;28;8912;-74
2022/08/20 00:12:12;;;;;;;;;37.80;32.20;;;;;;;;5190839;28;8814;-74
2022/08/20 00:14:43;;;;;;;;;38.20;33.20;;;;;;;;5204185;28;8795;-74
2022/08/20 00:17:15;;;;;;;;;34.40;30.20;;;;;;;;5206515;28;8779;-74
2022/08/20 00:19:46;;;;;;;;;31.80;28.60;;;;;;;;5173529;28;8795;-74
2022/08/20 00:22:17;;;;;;;;;38.80;31.40;;;;;;;;5224910;28;9573;-74
2022/08/20 00:24:49;;;;;;;;;42.20;34.60;;;;;;;;5190501;28;9596;-74
2022/08/20 00:27:20;;;;;;;;;42.20;34.20;;;;;;;;5190964;28;8787;-74
2022/08/20 00:29:51;;;;;;;;;34.40;30.00;;;;;;;;5206312;28;8795;-74
2022/08/20 00:32:22;;;;;;;;;35.20;31.20;;;;;;;;5206479;28;8782;-74
2022/08/20 00:34:53;;;;;;;;;38.00;32.40;;;;;;;;5172431;28;8797;-74
2022/08/20 00:37:24;;;;;;;;;32.00;29.60;;;;;;;;5187871;28;9481;-74
2022/08/20 00:39:55;;;;;;;;;30.20;28.60;;;;;;;;5206132;28;8779;-74
2022/08/20 00:42:26;;;;;;;;;25.40;23.60;;;;;;;;5190597;28;8775;-74
2022/08/20 00:44:57;;;;;;;;;30.40;27.40;;;;;;;;5190401;28;8835;-74
2022/08/20 00:47:28;;;;;;;;;30.40;27.20;;;;;;;;5204486;28;8795;-74
2022/08/20 00:49:59;;;;;;;;;36.00;31.20;;;;;;;;5190312;28;8793;-74
2022/08/20 00:52:31;;;;;;;;;31.40;29.40;;;;;;;;5198821;28;8777;-73
2022/08/20 00:55:03;;;;;;;;;27.60;24.40;;;;;;;;5206708;28;8794;-74
2022/08/20 00:57:44;;;;;;;;;31.40;29.60;;;;;;;;5188705;28;8799;-74
2022/08/20 01:00:17;;;;;;;;;25.60;23.60;;;;;;;;5206251;28;8806;-73
2022/08/20 01:02:49;;;;;;;;;21.60;19.20;;;;;;;;5204165;28;8799;-74
2022/08/20 01:05:22;;;;;;;;;31.40;29.00;;;;;;;;5206964;28;8799;-73
2022/08/20 01:07:54;;;;;;;;;24.20;23.20;;;;;;;;5174149;28;8864;-73
2022/08/20 01:10:26;;;;;;;;;28.60;26.40;;;;;;;;5206791;28;8922;-72
2022/08/20 01:12:57;;;;;;;;;33.60;27.40;;;;;;;;5206464;28;8798;-73
2022/08/20 01:15:30;;;;;;;;;27.40;25.40;;;;;;;;5187943;28;8795;-73
2022/08/20 01:18:01;;;;;;;;;25.60;23.60;;;;;;;;5206571;28;8791;-73
2022/08/20 01:20:36;;;;;;;;;29.20;25.40;;;;;;;;5187833;28;8786;-73
2022/08/20 01:23:27;;;;;;;;;22.20;20.60;;;;;;;;5182071;28;9379;-73
2022/08/20 01:26:02;;;;;;;;;19.40;16.80;;;;;;;;5205222;28;8920;-73
2022/08/20 01:28:42;;;;;;;;;22.60;21.20;;;;;;;;5190392;28;8786;-73
2022/08/20 01:31:15;;;;;;;;;19.20;16.80;;;;;;;;5221814;28;8779;-72
2022/08/20 01:33:47;;;;;;;;;27.80;24.80;;;;;;;;5207874;28;8832;-73
2022/08/20 01:36:21;;;;;;;;;29.20;23.80;;;;;;;;5189931;28;8896;-73
2022/08/20 01:38:52;;;;;;;;;25.60;22.40;;;;;;;;5194555;28;8856;-73
2022/08/20 01:41:23;;;;;;;;;25.60;24.20;;;;;;;;5218567;28;8927;-75
2022/08/20 01:44:12;;;;;;;;;24.40;22.20;;;;;;;;5229840;28;8826;-75
2022/08/20 01:46:44;;;;;;;;;23.20;22.60;;;;;;;;5208417;28;8783;-75
2022/08/20 01:49:22;;;;;;;;;25.40;22.00;;;;;;;;5210365;28;8786;-75
2022/08/20 01:51:54;;;;;;;;;20.00;19.00;;;;;;;;5208176;28;8784;-75
2022/08/20 01:54:26;;;;;;;;;23.00;22.20;;;;;;;;5196248;28;8788;-74
2022/08/20 01:57:01;;;;;;;;;23.80;20.60;;;;;;;;5210213;28;8772;-75
2022/08/20 01:59:32;;;;;;;;;24.60;20.00;;;;;;;;5192284;28;8772;-74
2022/08/20 02:02:05;;;;;;;;;24.20;21.40;;;;;;;;5209839;28;8801;-73
2022/08/20 02:04:37;;;;;;;;;22.60;19.60;;;;;;;;5193233;28;9514;-74
2022/08/20 02:07:14;;;;;;;;;21.40;20.00;;;;;;;;5206999;28;8775;-74
2022/08/20 02:09:46;;;;;;;;;22.80;20.00;;;;;;;;5176957;28;8787;-74
2022/08/20 02:12:17;;;;;;;;;16.60;15.00;;;;;;;;5201689;28;8790;-73
2022/08/20 02:14:50;;;;;;;;;17.80;16.00;;;;;;;;5173419;28;8796;-73
2022/08/20 02:17:22;;;;;;;;;19.60;18.20;;;;;;;;5193090;28;8900;-73
2022/08/20 02:19:58;;;;;;;;;16.00;15.80;;;;;;;;5209096;28;8779;-73
2022/08/20 02:22:51;;;;;;;;;17.80;17.80;;;;;;;;5211835;28;8833;-73
2022/08/20 02:25:24;;;;;;;;;20.20;18.20;;;;;;;;5209404;28;8803;-73
2022/08/20 02:27:56;;;;;;;;;16.00;14.20;;;;;;;;5209725;28;8768;-72
2022/08/20 02:30:32;;;;;;;;;15.00;15.00;;;;;;;;5209108;28;8798;-73
2022/08/20 02:33:05;;;;;;;;;15.20;14.40;;;;;;;;5216875;28;8918;-73
2022/08/20 02:35:38;;;;;;;;;15.20;14.00;;;;;;;;5209137;28;8927;-74
2022/08/20 02:38:10;;;;;;;;;21.40;20.20;;;;;;;;5193114;28;8786;-73
2022/08/20 02:40:43;;;;;;;;;26.00;23.40;;;;;;;;5209694;28;8822;-73
2022/08/20 02:43:16;;;;;;;;;30.00;27.60;;;;;;;;5198868;28;8835;-73
2022/08/20 02:46:06;;;;;;;;;35.40;31.60;;;;;;;;5175443;28;8882;-73
2022/08/20 02:48:38;;;;;;;;;26.60;25.40;;;;;;;;5172658;28;8785;-73
2022/08/20 02:51:28;;;;;;;;;44.40;36.00;;;;;;;;5190969;28;8859;-73
2022/08/20 02:53:59;;;;;;;;;32.80;24.40;;;;;;;;5164972;28;8819;-74
2022/08/20 02:56:31;;;;;;;;;19.00;18.60;;;;;;;;5182012;28;8831;-73
2022/08/20 02:59:03;;;;;;;;;15.00;14.00;;;;;;;;5200867;28;8814;-72
2022/08/20 03:01:35;;;;;;;;;19.40;16.80;;;;;;;;5200901;28;8798;-73
2022/08/20 03:04:06;;;;;;;;;16.40;14.40;;;;;;;;5209862;28;8795;-72
2022/08/20 03:06:37;;;;;;;;;15.00;13.50;;;;;;;;5192801;28;8790;-72
2022/08/20 03:09:08;;;;;;;;;14.00;13.75;;;;;;;;5192743;28;8814;-72
2022/08/20 03:11:39;;;;;;;;;9.50;9.25;;;;;;;;5208769;28;9510;-72
2022/08/20 03:14:10;;;;;;;;;15.50;14.00;;;;;;;;5226581;28;9518;-74
2022/08/20 03:17:00;;;;;;;;;18.80;17.40;;;;;;;;5226657;28;8795;-73
2022/08/20 03:19:32;;;;;;;;;13.40;13.00;;;;;;;;5188946;28;8797;-73
2022/08/20 03:22:03;;;;;;;;;16.00;13.75;;;;;;;;5189522;28;8836;-73
2022/08/20 03:24:54;;;;;;;;;15.00;13.00;;;;;;;;5188358;28;8833;-74
2022/08/20 03:27:25;;;;;;;;;16.25;14.75;;;;;;;;5172031;28;8803;-74
2022/08/20 03:29:56;;;;;;;;;17.00;15.50;;;;;;;;5172174;28;8777;-73
2022/08/20 03:32:27;;;;;;;;;19.00;16.20;;;;;;;;5188115;28;8837;-74
2022/08/20 03:34:58;;;;;;;;;45.00;38.20;;;;;;;;5172353;28;8836;-74
2022/08/20 03:37:48;;;;;;;;;36.00;32.00;;;;;;;;5190713;28;8785;-74
2022/08/20 03:40:24;;;;;;;;;27.00;24.60;;;;;;;;5208475;28;8822;-74
2022/08/20 03:42:56;;;;;;;;;21.40;20.00;;;;;;;;5192672;28;8794;-74
2022/08/20 03:45:28;;;;;;;;;22.00;21.00;;;;;;;;5192237;28;8802;-75
2022/08/20 03:48:00;;;;;;;;;17.00;16.75;;;;;;;;5208645;28;8880;-74
2022/08/20 03:50:50;;;;;;;;;20.50;19.50;;;;;;;;5208368;28;8925;-74
2022/08/20 03:53:21;;;;;;;;;24.80;22.40;;;;;;;;5191114;28;8799;-74
2022/08/20 03:55:54;;;;;;;;;26.60;23.80;;;;;;;;5226381;28;8795;-74
2022/08/20 03:58:27;;;;;;;;;25.60;25.60;;;;;;;;5188813;28;8791;-74
2022/08/20 04:00:58;;;;;;;;;24.00;23.00;;;;;;;;5171402;28;9524;-74
2022/08/20 04:03:48;;;;;;;;;23.50;22.00;;;;;;;;5174055;28;8819;-74
2022/08/20 04:06:19;;;;;;;;;28.00;24.20;;;;;;;;5187597;28;8785;-74
2022/08/20 04:08:50;;;;;;;;;24.20;23.00;;;;;;;;5220319;28;8785;-74
2022/08/20 04:11:21;;;;;;;;;23.60;22.40;;;;;;;;5220518;28;8777;-74
2022/08/20 04:13:52;;;;;;;;;25.40;23.20;;;;;;;;5186888;28;9504;-74
2022/08/20 04:16:23;;;;;;;;;29.00;26.20;;;;;;;;5187646;28;8844;-74
2022/08/20 04:18:54;;;;;;;;;24.80;23.60;;;;;;;;5187513;28;8904;-74
2022/08/20 04:21:25;;;;;;;;;24.33;22.33;;;;;;;;5177271;28;8928;-73
2022/08/20 04:23:57;;;;;;;;;20.40;18.80;;;;;;;;5208303;28;8779;-74
2022/08/20 04:26:29;;;;;;;;;27.80;25.40;;;;;;;;5175062;28;8858;-74
2022/08/20 04:28:59;;;;;;;;;35.60;32.40;;;;;;;;5190287;28;8799;-74
2022/08/20 04:31:33;;;;;;;;;37.00;33.20;;;;;;;;5191447;28;8809;-74
2022/08/20 04:34:07;;;;;;;;;36.00;30.80;;;;;;;;5208041;28;9466;-75
2022/08/20 04:36:39;;;;;;;;;34.80;32.20;;;;;;;;5174989;28;8834;-75
2022/08/20 04:39:10;;;;;;;;;36.00;32.20;;;;;;;;5191383;28;8795;-75
2022/08/20 04:41:41;;;;;;;;;38.00;33.50;;;;;;;;5225846;28;8803;-83
2022/08/20 04:44:12;;;;;;;;;43.60;35.40;;;;;;;;5191325;28;11622;-73
2022/08/20 04:47:02;;;;;;;;;41.40;35.40;;;;;;;;5219274;28;8793;-74
2022/08/20 04:49:36;;;;;;;;;41.40;35.80;;;;;;;;5170715;28;8793;-75
2022/08/20 04:52:07;;;;;;;;;46.20;39.40;;;;;;;;5187269;28;8778;-74
2022/08/20 04:54:38;;;;;;;;;54.20;42.40;;;;;;;;5187108;28;9581;-73
2022/08/20 04:57:09;;;;;;;;;48.60;38.40;;;;;;;;5154766;28;8801;-73
2022/08/20 04:59:59;;;;;;;;;48.00;40.20;;;;;;;;5186809;28;8886;-75
2022/08/20 05:02:30;;;;;;;;;54.00;43.60;;;;;;;;5189524;28;9542;-73
2022/08/20 05:05:01;;;;;;;;;45.25;38.00;;;;;;;;5189949;28;8835;-73
2022/08/20 05:07:36;;;;;;;;;49.80;42.20;;;;;;;;5189409;28;11551;-73
2022/08/20 05:10:08;;;;;;;;;44.00;37.60;;;;;;;;5209009;28;8818;-73
2022/08/20 05:12:58;;;;;;;;;46.00;38.20;;;;;;;;5221117;28;8890;-74
2022/08/20 05:15:29;;;;;;;;;49.75;40.00;;;;;;;;5213476;28;8810;-74
2022/08/20 05:18:01;;;;;;;;;47.20;39.20;;;;;;;;5222673;28;10625;-74
2022/08/20 05:20:34;;;;;;;;;54.40;43.20;;;;;;;;5188878;28;8802;-75
2022/08/20 05:23:10;;;;;;;;;60.60;47.60;;;;;;;;5173131;28;8821;-73
2022/08/20 05:25:42;;;;;;;;;56.20;45.80;;;;;;;;5156666;28;9540;-74
2022/08/20 05:28:19;;;;;;;;;41.20;33.40;;;;;;;;5172858;28;8793;-73
2022/08/20 05:30:51;;;;;;;;;14.75;14.25;;;;;;;;5189077;28;9007;-75
2022/08/20 05:33:22;;;;;;;;;8.00;8.00;;;;;;;;5191705;28;8807;-75
2022/08/20 05:35:53;;;;;;;;;18.00;17.25;;;;;;;;5208843;28;8795;-74
2022/08/20 05:38:27;;;;;;;;;12.00;8.00;;;;;;;;5228499;28;8779;-73
2022/08/20 05:40:58;;;;;;;;;16.00;13.50;;;;;;;;5174163;28;8802;-74
2022/08/20 05:43:31;;;;;;;;;13.75;12.50;;;;;;;;5206788;28;8808;-74
2022/08/20 05:46:02;;;;;;;;;31.75;30.00;;;;;;;;5190248;28;8809;-74
2022/08/20 05:48:52;;;;;;;;;42.80;36.00;;;;;;;;5213286;28;8910;-75
2022/08/20 05:51:23;;;;;;;;;34.80;31.40;;;;;;;;5194305;28;8771;-75
2022/08/20 05:54:13;;;;;;;;;22.25;20.25;;;;;;;;5228522;28;8891;-74
2022/08/20 05:56:44;;;;;;;;;19.50;18.75;;;;;;;;5210888;28;8787;-74
2022/08/20 05:59:15;;;;;;;;;50.00;41.80;;;;;;;;5210534;28;8779;-73
2022/08/20 06:04:23;;;;;;;;;79.60;72.20;;;;;;;;5196333;28;8812;-74
2022/08/20 06:04:55;;;;;;;;;20.50;20.00;;;;;;;;5207412;28;8882;-73
2022/08/20 06:07:26;;;;;;;;;19.00;17.67;;;;;;;;5190043;28;8777;-74
2022/08/20 06:10:16;;;;;;;;;17.25;16.25;;;;;;;;5220584;28;10510;-72
2022/08/20 06:12:47;;;;;;;;;17.25;15.75;;;;;;;;5206307;28;8859;-74
2022/08/20 06:15:19;;;;;;;;;15.00;14.00;;;;;;;;5190837;28;8781;-76
2022/08/20 06:17:50;;;;;;;;;12.00;11.00;;;;;;;;5194043;28;9498;-74
2022/08/20 06:20:21;;;;;;;;;41.80;36.20;;;;;;;;5193535;28;8785;-74
2022/08/20 06:22:52;;;;;;;;;13.25;13.25;;;;;;;;5178458;28;8829;-76
2022/08/20 06:25:42;;;;;;;;;41.60;35.60;;;;;;;;5218333;28;8818;-76
2022/08/20 06:28:32;;;;;;;;;11.50;8.25;;;;;;;;5189357;28;8797;-74
2022/08/20 06:31:03;;;;;;;;;7.25;7.25;;;;;;;;5189488;28;8781;-74
2022/08/20 06:33:34;;;;;;;;;8.25;8.25;;;;;;;;5206697;28;8781;-74
2022/08/20 06:36:23;;;;;;;;;6.00;5.25;;;;;;;;5203493;28;8789;-74
2022/08/20 06:38:57;;;;;;;;;5.75;5.75;;;;;;;;5189399;28;8778;-76
2022/08/20 06:41:28;;;;;;;;;6.00;6.00;;;;;;;;5198287;28;8832;-74
2022/08/20 06:43:59;;;;;;;;;4.00;4.00;;;;;;;;5193993;28;8803;-75
2022/08/20 06:46:48;;;;;;;;;3.00;3.00;;;;;;;;5200464;28;8917;-75
2022/08/20 06:49:20;;;;;;;;;2.75;2.75;;;;;;;;5209846;28;8798;-74
2022/08/20 06:51:50;;;;;;;;;4.00;4.00;;;;;;;;5193167;28;8805;-73
2022/08/20 06:54:22;;;;;;;;;3.00;3.00;;;;;;;;5190100;28;9849;-74
2022/08/20 06:56:53;;;;;;;;;0.25;0.25;;;;;;;;5189040;28;8789;-74
2022/08/20 06:59:24;;;;;;;;;2.75;2.75;;;;;;;;5189070;28;8916;-74
2022/08/20 07:02:14;;;;;;;;;3.00;3.00;;;;;;;;5194032;28;8809;-87
2022/08/20 07:05:04;;;;;;;;;5.25;5.25;;;;;;;;5212900;28;8791;-74
2022/08/20 07:07:54;;;;;;;;;1.50;1.50;;;;;;;;5195735;28;8791;-74
2022/08/20 07:10:25;;;;;;;;;1.50;1.50;;;;;;;;5192740;28;8879;-74
2022/08/20 07:12:58;;;;;;;;;2.50;2.50;;;;;;;;5209160;28;8806;-75
2022/08/20 07:15:31;;;;;;;;;3.00;3.00;;;;;;;;5191866;28;8787;-74
2022/08/20 07:18:03;;;;;;;;;1.25;1.25;;;;;;;;5205047;28;8854;-75
2022/08/20 07:20:35;;;;;;;;;1.50;1.50;;;;;;;;5207624;28;8809;-75
2022/08/20 07:23:10;;;;;;;;;2.25;2.25;;;;;;;;5172045;28;8798;-74
2022/08/20 07:25:42;;;;;;;;;3.00;3.00;;;;;;;;5161526;28;8857;-75
2022/08/20 07:28:19;;;;;;;;;2.25;2.25;;;;;;;;5171976;28;8793;-75
2022/08/20 07:37:48;;;;;;;;;2.75;2.75;;;;;;;;5205717;28;8986;-73
2022/08/20 07:40:22;;;;;;;;;3.25;3.25;;;;;;;;5187959;28;8874;-74
2022/08/20 07:42:55;;;;;;;;;2.25;2.25;;;;;;;;5171624;28;8908;-74
2022/08/20 07:45:26;;;;;;;;;3.00;3.00;;;;;;;;5187131;28;8947;-76
2022/08/20 07:48:08;;;;;;;;;3.00;3.00;;;;;;;;5171881;28;9532;-74
2022/08/20 07:50:40;;;;;;;;;2.00;2.00;;;;;;;;5171501;28;8812;-74
2022/08/20 07:53:32;;;;;;;;;2.50;2.50;;;;;;;;5174458;28;8887;-75
2022/08/20 07:56:22;;;;;;;;;4.75;4.75;;;;;;;;5174121;28;8805;-75
2022/08/20 07:58:55;;;;;;;;;3.00;3.00;;;;;;;;5187592;28;8863;-75
2022/08/20 08:01:29;;;;;;;;;2.75;2.75;;;;;;;;5187722;28;9562;-75
2022/08/20 08:04:00;;;;;;;;;2.25;2.25;;;;;;;;5187994;28;8863;-75
2022/08/20 08:06:31;;;;;;;;;3.00;3.00;;;;;;;;5155581;28;8781;-74
2022/08/20 08:09:08;;;;;;;;;3.50;3.50;;;;;;;;5205428;28;8765;-74
2022/08/20 08:11:40;;;;;;;;;7.25;7.25;;;;;;;;5155076;28;8782;-75
2022/08/20 08:14:12;;;;;;;;;3.50;3.50;;;;;;;;5155530;28;8817;-75
2022/08/20 08:16:44;;;;;;;;;3.50;3.50;;;;;;;;5187715;28;8789;-74
2022/08/20 08:19:37;;;;;;;;;4.00;4.00;;;;;;;;5210273;28;8787;-74
2022/08/20 08:22:11;;;;;;;;;3.00;3.00;;;;;;;;5203627;28;8829;-74
2022/08/20 08:24:48;;;;;;;;;3.00;3.00;;;;;;;;5184150;28;9547;-75
2022/08/20 08:27:48;;;;;;;;;1.75;1.75;;;;;;;;5174325;28;8795;-74
2022/08/20 08:30:21;;;;;;;;;18.00;18.00;;;;;;;;5155056;28;8890;-74
2022/08/20 08:35:45;;;;;;;;;19.75;19.75;;;;;;;;5173274;28;8871;-74
2022/08/20 08:38:16;;;;;;;;;6.75;6.75;;;;;;;;5172286;28;9626;-74
2022/08/20 08:40:50;;;;;;;;;7.50;7.50;;;;;;;;5185285;28;8896;-75
2022/08/20 08:43:23;;;;;;;;;5.50;5.50;;;;;;;;5192765;28;8783;-74
2022/08/20 08:46:00;;;;;;;;;6.50;6.50;;;;;;;;5194774;28;8837;-74
2022/08/20 08:48:34;;;;;;;;;2.75;2.75;;;;;;;;5178894;28;8817;-73
2022/08/20 08:51:11;;;;;;;;;2.00;2.00;;;;;;;;5227906;28;8818;-74
2022/08/20 08:53:48;;;;;;;;;2.00;2.00;;;;;;;;5228721;28;8800;-75
2022/08/20 08:56:29;;;;;;;;;11.25;11.25;;;;;;;;5174563;28;8793;-74
2022/08/20 08:59:03;;;;;;;;;20.50;20.25;;;;;;;;5175096;28;8813;-74
2022/08/20 09:01:41;;;;;;;;;5.50;5.50;;;;;;;;5174793;28;8809;-74
2022/08/20 09:04:13;;;;;;;;;4.00;4.00;;;;;;;;5175056;28;8785;-75
2022/08/20 09:07:06;;;;;;;;;3.00;3.00;;;;;;;;5191252;28;9540;-75
2022/08/20 09:09:38;;;;;;;;;3.00;3.00;;;;;;;;5158585;28;8785;-74
2022/08/20 09:12:13;;;;;;;;;7.25;7.25;;;;;;;;5174914;28;8796;-74
2022/08/20 09:14:46;;;;;;;;;4.50;4.50;;;;;;;;5191476;28;8793;-74
2022/08/20 09:17:36;;;;;;;;;12.00;12.00;;;;;;;;5209332;28;8785;-74
2022/08/20 09:20:25;;;;;;;;;5.50;5.50;;;;;;;;5214083;28;8783;-74
2022/08/20 09:22:57;;;;;;;;;4.25;4.25;;;;;;;;5174716;28;8816;-74
2022/08/20 09:25:28;;;;;;;;;2.00;2.00;;;;;;;;5191126;28;8828;-74
2022/08/20 09:27:59;;;;;;;;;0.50;0.50;;;;;;;;5190707;28;9534;-74
2022/08/20 09:30:29;;;;;;;;;2.00;2.00;;;;;;;;5190769;28;8820;-72
2022/08/20 09:33:19;;;;;;;;;3.00;3.00;;;;;;;;5183203;28;8795;-75
2022/08/20 09:35:50;;;;;;;;;1.00;1.00;;;;;;;;5186680;28;8830;-75
2022/08/20 09:38:21;;;;;;;;;5.25;5.25;;;;;;;;5187903;28;8799;-75
2022/08/20 09:40:52;;;;;;;;;3.25;3.25;;;;;;;;5187939;28;9549;-75
2022/08/20 09:43:23;;;;;;;;;1.67;1.67;;;;;;;;5198565;28;8784;-76
2022/08/20 09:45:54;;;;;;;;;2.00;2.00;;;;;;;;5207176;28;8898;-76
2022/08/20 09:48:25;;;;;;;;;3.75;3.75;;;;;;;;5207406;28;9577;-75
2022/08/20 09:50:56;;;;;;;;;1.67;1.67;;;;;;;;5190544;28;8789;-76
2022/08/20 09:53:28;;;;;;;;;2.00;2.00;;;;;;;;5190074;28;9320;-76
2022/08/20 09:55:59;;;;;;;;;3.00;3.00;;;;;;;;5170099;28;8807;-76
2022/08/20 09:58:30;;;;;;;;;1.00;1.00;;;;;;;;5186859;28;8840;-76
2022/08/20 10:01:04;;;;;;;;;3.00;3.00;;;;;;;;5190325;28;8793;-77
2022/08/20 10:03:54;;;;;;;;;1.00;1.00;;;;;;;;5192692;28;8789;-76
2022/08/20 10:06:25;;;;;;;;;1.25;1.00;;;;;;;;5173589;28;8823;-75
2022/08/20 10:08:56;;;;;;;;;2.25;2.25;;;;;;;;5189905;28;8784;-76
2022/08/20 10:11:27;;;;;;;;;1.00;1.00;;;;;;;;5189886;28;8781;-77
2022/08/20 10:13:58;;;;;;;;;1.00;1.00;;;;;;;;5206501;28;8911;-76
2022/08/20 10:16:53;;;;;;;;;1.75;1.75;;;;;;;;5192207;28;8781;-75
2022/08/20 10:19:25;;;;;;;;;6.50;6.50;;;;;;;;5173940;28;8793;-75
2022/08/20 10:21:56;;;;;;;;;1.50;1.50;;;;;;;;5173395;28;8800;-75
2022/08/20 10:24:27;;;;;;;;;2.00;2.00;;;;;;;;5168812;28;8880;-75
2022/08/20 10:27:17;;;;;;;;;3.00;3.00;;;;;;;;5172095;28;8933;-76
2022/08/20 10:29:48;;;;;;;;;2.75;2.75;;;;;;;;5186478;28;8909;-77
2022/08/20 10:32:19;;;;;;;;;4.25;4.25;;;;;;;;5195584;28;8874;-77
2022/08/20 10:34:50;;;;;;;;;2.75;2.75;;;;;;;;5203619;28;8816;-75
2022/08/20 10:37:24;;;;;;;;;1.00;1.00;;;;;;;;5188448;28;8811;-77
2022/08/20 10:40:16;;;;;;;;;2.50;2.50;;;;;;;;5186195;28;8811;-75
2022/08/20 10:43:06;;;;;;;;;10.50;10.50;;;;;;;;5193915;28;9631;-75
2022/08/20 10:45:37;;;;;;;;;57.00;47.00;;;;;;;;5176106;28;9569;-77
2022/08/20 10:48:08;;;;;;;;;39.00;34.20;;;;;;;;5169998;28;8787;-76
2022/08/20 10:50:39;;;;;;;;;5.75;5.75;;;;;;;;5187746;28;8780;-76
2022/08/20 10:53:11;;;;;;;;;3.50;3.50;;;;;;;;5170653;28;8880;-76
2022/08/20 10:55:42;;;;;;;;;2.75;2.75;;;;;;;;5189279;28;8788;-76
2022/08/20 10:58:14;;;;;;;;;1.50;1.50;;;;;;;;5205568;28;8816;-76
2022/08/20 11:00:45;;;;;;;;;2.00;2.00;;;;;;;;5189209;28;8788;-76
2022/08/20 11:03:17;;;;;;;;;53.40;45.00;;;;;;;;5189075;28;8807;-76
2022/08/20 11:05:48;;;;;;;;;6.00;6.00;;;;;;;;5189308;28;8820;-76
2022/08/20 11:08:19;;;;;;;;;0.00;0.00;;;;;;;;5205423;28;8895;-76
2022/08/20 11:10:51;;;;;;;;;0.00;0.00;;;;;;;;5205691;28;8923;-76
2022/08/20 11:13:40;;;;;;;;;4.50;4.50;;;;;;;;5205622;28;8812;-76
2022/08/20 11:16:11;;;;;;;;;5.00;5.00;;;;;;;;5188702;28;8808;-77
2022/08/20 11:18:42;;;;;;;;;2.50;2.50;;;;;;;;5205393;28;8796;-77
2022/08/20 11:21:13;;;;;;;;;8.25;8.25;;;;;;;;5189389;28;8807;-77
2022/08/20 11:23:44;;;;;;;;;3.25;3.25;;;;;;;;5209524;28;8814;-76
2022/08/20 11:26:20;;;;;;;;;1.75;1.75;;;;;;;;5193066;28;8811;-76
2022/08/20 11:29:09;;;;;;;;;2.00;2.00;;;;;;;;5195057;28;8972;-76
2022/08/20 11:31:40;;;;;;;;;2.25;2.25;;;;;;;;5191953;28;8822;-76
2022/08/20 11:34:30;;;;;;;;;2.00;2.00;;;;;;;;5211614;28;8905;-76
2022/08/20 11:37:22;;;;;;;;;1.00;1.00;;;;;;;;5211645;28;9565;-76
2022/08/20 11:39:53;;;;;;;;;1.75;1.75;;;;;;;;5192191;28;8814;-76
2022/08/20 11:42:24;;;;;;;;;2.00;2.00;;;;;;;;5209404;28;8767;-76
2022/08/20 11:44:56;;;;;;;;;1.25;1.25;;;;;;;;5208957;28;8861;-76
2022/08/20 11:47:28;;;;;;;;;4.50;4.50;;;;;;;;5192196;28;8905;-76
2022/08/20 11:50:07;;;;;;;;;3.00;3.00;;;;;;;;5208822;28;8787;-77
2022/08/20 11:52:38;;;;;;;;;2.50;2.50;;;;;;;;5226718;28;8795;-76
2022/08/20 11:55:10;;;;;;;;;9.50;9.50;;;;;;;;5208827;28;8816;-76
2022/08/20 11:57:43;;;;;;;;;3.50;3.50;;;;;;;;5191763;28;8862;-76
2022/08/20 12:00:20;;;;;;;;;2.25;2.25;;;;;;;;5176048;28;8779;-77
2022/08/20 12:03:09;;;;;;;;;3.00;3.00;;;;;;;;5195117;28;8771;-75
2022/08/20 12:05:41;;;;;;;;;2.50;2.50;;;;;;;;5179925;28;8847;-76
2022/08/20 12:08:31;;;;;;;;;1.00;1.00;;;;;;;;5211833;28;8886;-76
2022/08/20 12:11:02;;;;;;;;;4.00;4.00;;;;;;;;5185742;28;8810;-76
2022/08/20 12:13:34;;;;;;;;;0.25;0.25;;;;;;;;5209402;28;9468;-76
2022/08/20 12:16:05;;;;;;;;;2.00;2.00;;;;;;;;5209347;28;8783;-76
2022/08/20 12:18:36;;;;;;;;;2.00;2.00;;;;;;;;5197240;28;8829;-76
2022/08/20 12:21:08;;;;;;;;;3.00;3.00;;;;;;;;5217319;28;8937;-76
2022/08/20 12:23:38;;;;;;;;;5.00;5.00;;;;;;;;5226662;28;8929;-77
2022/08/20 12:26:09;;;;;;;;;18.33;17.67;;;;;;;;5208200;28;11489;-76
2022/08/20 12:28:59;;;;;;;;;3.50;3.50;;;;;;;;5208220;28;9167;-76
2022/08/20 12:31:30;;;;;;;;;7.00;7.00;;;;;;;;5191476;28;8922;-76
2022/08/20 12:34:19;;;;;;;;;39.80;35.20;;;;;;;;5211212;28;8775;-76
2022/08/20 12:36:59;;;;;;;;;16.50;16.50;;;;;;;;5226159;28;8832;-75
2022/08/20 12:39:32;;;;;;;;;8.75;8.75;;;;;;;;5208673;28;8925;-76
2022/08/20 12:42:03;;;;;;;;;2.50;2.50;;;;;;;;5191966;28;8825;-75
2022/08/20 12:44:52;;;;;;;;;2.00;2.00;;;;;;;;5225542;28;8888;-74
2022/08/20 12:47:26;;;;;;;;;1.25;1.25;;;;;;;;5207976;28;8771;-74
2022/08/20 12:50:02;;;;;;;;;2.75;2.75;;;;;;;;5176071;28;8887;-74
2022/08/20 12:52:34;;;;;;;;;2.50;2.50;;;;;;;;5225583;28;8910;-75
2022/08/20 12:55:06;;;;;;;;;6.75;6.75;;;;;;;;5208418;28;8909;-75
2022/08/20 12:57:40;;;;;;;;;3.50;3.50;;;;;;;;5174915;28;8899;-74
2022/08/20 13:00:18;;;;;;;;;8.00;7.75;;;;;;;;5174978;28;8787;-74
2022/08/20 13:03:07;;;;;;;;;13.50;13.50;;;;;;;;5193690;28;8791;-75
2022/08/20 13:05:38;;;;;;;;;6.00;6.00;;;;;;;;5225760;28;8815;-74
2022/08/20 13:08:10;;;;;;;;;4.00;4.00;;;;;;;;5191328;28;9421;-74
2022/08/20 13:10:44;;;;;;;;;2.50;2.50;;;;;;;;5207900;28;8787;-74
2022/08/20 13:13:16;;;;;;;;;1.50;1.50;;;;;;;;5207352;28;8775;-74
2022/08/20 13:15:47;;;;;;;;;5.25;5.25;;;;;;;;5207451;28;8787;-74
2022/08/20 13:18:18;;;;;;;;;10.75;10.75;;;;;;;;5191356;28;9551;-74
2022/08/20 13:20:49;;;;;;;;;15.00;15.00;;;;;;;;5207751;28;9534;-74
2022/08/20 13:23:38;;;;;;;;;23.00;23.00;;;;;;;;5207408;28;8981;-74
2022/08/20 13:26:09;;;;;;;;;5.25;5.25;;;;;;;;5190967;28;8911;-74
2022/08/20 13:28:40;;;;;;;;;6.00;6.00;;;;;;;;5225180;28;8807;-75
2022/08/20 13:31:29;;;;;;;;;8.50;8.50;;;;;;;;5207501;28;8775;-74
2022/08/20 13:34:00;;;;;;;;;9.00;7.00;;;;;;;;5190862;28;8826;-74
2022/08/20 13:36:49;;;;;;;;;46.80;40.00;;;;;;;;5210109;28;11416;-74
2022/08/20 13:39:22;;;;;;;;;53.00;43.75;;;;;;;;5207216;28;8833;-74
2022/08/20 13:41:52;;;;;;;;;19.50;19.50;;;;;;;;5191066;28;11520;-74
2022/08/20 13:44:23;;;;;;;;;14.75;14.75;;;;;;;;5211207;28;8781;-75
2022/08/20 13:46:54;;;;;;;;;9.75;9.75;;;;;;;;5194514;28;8783;-74
2022/08/20 13:49:26;;;;;;;;;13.50;13.50;;;;;;;;5178432;28;8933;-74
2022/08/20 13:51:57;;;;;;;;;5.50;5.50;;;;;;;;5211293;28;8795;-74
2022/08/20 13:54:28;;;;;;;;;11.00;9.25;;;;;;;;5178119;28;8805;-74
2022/08/20 13:57:06;;;;;;;;;26.33;26.33;;;;;;;;5177890;28;8791;-74
2022/08/20 13:59:38;;;;;;;;;10.75;10.75;;;;;;;;5210856;28;8795;-75
2022/08/20 14:02:10;;;;;;;;;8.25;8.25;;;;;;;;5194156;28;8832;-74
2022/08/20 14:04:41;;;;;;;;;6.00;6.00;;;;;;;;5207952;28;8865;-75
2022/08/20 14:07:23;;;;;;;;;0.25;0.25;;;;;;;;5192980;28;8826;-76
2022/08/20 14:09:56;;;;;;;;;3.00;3.00;;;;;;;;5157972;28;8858;-74
2022/08/20 14:12:27;;;;;;;;;4.75;4.75;;;;;;;;5207640;28;8781;-74
2022/08/20 14:14:59;;;;;;;;;7.00;7.00;;;;;;;;5187599;28;8807;-75
2022/08/20 14:17:31;;;;;;;;;3.25;3.25;;;;;;;;5192280;28;9563;-74
2022/08/20 14:20:07;;;;;;;;;2.00;2.00;;;;;;;;5208458;28;8815;-74
2022/08/20 14:22:38;;;;;;;;;5.25;5.25;;;;;;;;5191854;28;8810;-75
2022/08/20 14:25:10;;;;;;;;;4.00;4.00;;;;;;;;5191340;28;8850;-75
2022/08/20 14:27:41;;;;;;;;;3.25;3.25;;;;;;;;5191823;28;8931;-75
2022/08/20 14:30:14;;;;;;;;;0.00;0.00;;;;;;;;5208522;28;8779;-73
2022/08/20 14:32:45;;;;;;;;;48.80;41.80;;;;;;;;5191308;28;8852;-74
2022/08/20 14:35:16;;;;;;;;;21.75;21.25;;;;;;;;5208069;28;8840;-76
2022/08/20 14:37:50;;;;;;;;;7.50;7.50;;;;;;;;5191651;28;8790;-74
2022/08/20 14:40:22;;;;;;;;;10.50;10.50;;;;;;;;5192373;28;8868;-75
2022/08/20 14:42:54;;;;;;;;;5.25;5.25;;;;;;;;5207806;28;8784;-76
2022/08/20 14:45:25;;;;;;;;;7.50;7.50;;;;;;;;5171741;28;8826;-77
2022/08/20 14:47:56;;;;;;;;;6.25;6.25;;;;;;;;5155427;28;8782;-76
2022/08/20 14:50:29;;;;;;;;;10.00;10.00;;;;;;;;5205350;28;8825;-75
2022/08/20 14:53:01;;;;;;;;;14.00;13.50;;;;;;;;5204921;28;8786;-77
2022/08/20 14:55:36;;;;;;;;;9.25;9.25;;;;;;;;5191890;28;8819;-76
2022/08/20 14:58:10;;;;;;;;;8.25;7.00;;;;;;;;5191856;28;8821;-76
2022/08/20 15:00:42;;;;;;;;;6.75;6.75;;;;;;;;5192799;28;9521;-75
2022/08/20 15:03:13;;;;;;;;;12.25;12.25;;;;;;;;5197443;28;8817;-78
2022/08/20 15:05:44;;;;;;;;;8.25;8.25;;;;;;;;5175146;28;8819;-76
2022/08/20 15:08:33;;;;;;;;;7.75;7.75;;;;;;;;5209221;28;9533;-77
2022/08/20 15:11:06;;;;;;;;;11.25;11.25;;;;;;;;5226586;28;8787;-75
2022/08/20 15:13:37;;;;;;;;;17.50;17.50;;;;;;;;5191516;28;8779;-76
2022/08/20 15:16:08;;;;;;;;;9.75;9.75;;;;;;;;5198792;28;8801;-76
2022/08/20 15:18:42;;;;;;;;;9.00;9.00;;;;;;;;5186996;28;8788;-76
2022/08/20 15:21:13;;;;;;;;;8.25;8.25;;;;;;;;5170811;28;8994;-76
2022/08/20 15:23:44;;;;;;;;;34.50;31.75;;;;;;;;5203446;28;8816;-76
2022/08/20 15:26:15;;;;;;;;;13.33;13.33;;;;;;;;5182241;28;8837;-76
2022/08/20 15:28:46;;;;;;;;;9.75;9.75;;;;;;;;5174225;28;9541;-75
2022/08/20 15:31:17;;;;;;;;;12.00;11.50;;;;;;;;5190918;28;8794;-76
2022/08/20 15:33:48;;;;;;;;;12.50;12.50;;;;;;;;5216763;28;8807;-76
2022/08/20 15:36:19;;;;;;;;;9.00;9.00;;;;;;;;5191014;28;8815;-77
2022/08/20 15:39:08;;;;;;;;;7.75;7.75;;;;;;;;5173637;28;8800;-75